Chamblee, GA (30341)

9:35 PM EST on December 25, 2014 (GMT -0500)
Lakeside | Change Station
CLOSE
Current Station
Personal Weather Station
Location: Atlanta, GA
Elevation: 971 ft
Nearby Weather Stations

Elev 971 ft 33.85 °N, 84.29 °W | Updated 5 minutes ago

Clear
Clear
37.4 °F
Feels Like 37 °F
N
0.0
Wind Variable Wind from East
Gusts 0.7 mph

Today
High -- | Low -- °F
--% Chance of Precip.
Yesterday
High -- | Low -- °F
Precip. -- in
7:40 AM 5:34 PM
Waxing Crescent, 21% visible
Pressure 30.29 in
Visibility 10.0 miles
Clouds Clear
Windchill 37 °F
Dew Point 35 °F
Humidity 90%
Rainfall 0.00 in
Snow Depth Not available.
UV 0 out of 12
Pollen 2.00 out of 12
Air Quality Not available.
Flu Activity Not available.
METAR KPDK 260153Z 00000KT 10SM CLR 03/00 A3025 RMK AO2 SLP256 T00280000

More Conditions Fewer Conditions

Pressure 30.29 in
Visibility 10.0 miles
Clouds Clear
Windchill 37 °F
Dew Point 35 °F
Humidity 90%
Rainfall 0.00 in
Snow Depth Not available.
UV 0 out of 12
Pollen 2.00 out of 12
Air Quality Not available.
Flu Activity Not available.
METAR KPDK 260153Z 00000KT 10SM CLR 03/00 A3025 RMK AO2 SLP256 T00280000

More Conditions Fewer Conditions

10-Day Weather Forecast

Almanac

Astronomy

Dec. 25, 2014 Rise Set
Actual Time
Civil Twilight
Nautical Twilight
Astronomical Twilight
Moon
Length of Visible Light
Length of Day
Tomorrow will be .
, % of the Moon is Illuminated

Today's Extremes

State Highs State Lows

Community

WunderPhotos

Upload Photos

1,780,511 photos uploaded!

WunderBlogs® & News

Nearby

Air Quality

  Air Quality AQ Index Pollutant
Not available.

Snow Depth

Station Depth Elevation

Earthquake Activity

City Distance Mag. Time & Date
Minimum magnitude displayed is 2.5.

Coastal Water Temperatures

Place Temperature

Nearby Weather Stations